sensor_id;sensor_type;location;lat;lon;timestamp;temperature;humidity
70534;SHT31;58088;51.186;17.130;2024-02-21T00:02:21;8.58;74.60
70534;SHT31;58088;51.186;17.130;2024-02-21T00:04:47;8.58;74.63
70534;SHT31;58088;51.186;17.130;2024-02-21T00:07:14;8.56;74.60
70534;SHT31;58088;51.186;17.130;2024-02-21T00:09:40;8.55;74.63
70534;SHT31;58088;51.186;17.130;2024-02-21T00:12:06;8.58;74.60
70534;SHT31;58088;51.186;17.130;2024-02-21T00:14:35;8.57;74.60
70534;SHT31;58088;51.186;17.130;2024-02-21T00:17:02;8.57;74.65
70534;SHT31;58088;51.186;17.130;2024-02-21T00:19:30;8.57;74.68
70534;SHT31;58088;51.186;17.130;2024-02-21T00:21:56;8.57;74.70
70534;SHT31;58088;51.186;17.130;2024-02-21T00:24:22;8.58;74.69
70534;SHT31;58088;51.186;17.130;2024-02-21T00:26:48;8.56;74.60
70534;SHT31;58088;51.186;17.130;2024-02-21T00:29:15;8.58;74.62
70534;SHT31;58088;51.186;17.130;2024-02-21T00:31:41;8.60;74.63
70534;SHT31;58088;51.186;17.130;2024-02-21T00:34:07;8.61;74.59
70534;SHT31;58088;51.186;17.130;2024-02-21T00:36:33;8.60;74.58
70534;SHT31;58088;51.186;17.130;2024-02-21T00:38:59;8.61;74.62
70534;SHT31;58088;51.186;17.130;2024-02-21T00:41:25;8.63;74.60
70534;SHT31;58088;51.186;17.130;2024-02-21T00:43:51;8.63;74.59
70534;SHT31;58088;51.186;17.130;2024-02-21T00:46:17;8.63;74.59
70534;SHT31;58088;51.186;17.130;2024-02-21T00:48:43;8.65;74.61
70534;SHT31;58088;51.186;17.130;2024-02-21T00:51:09;8.66;74.58
70534;SHT31;58088;51.186;17.130;2024-02-21T00:53:35;8.69;74.50
70534;SHT31;58088;51.186;17.130;2024-02-21T00:56:04;8.68;74.48
70534;SHT31;58088;51.186;17.130;2024-02-21T00:58:31;8.68;74.50
70534;SHT31;58088;51.186;17.130;2024-02-21T01:00:57;8.71;74.50
70534;SHT31;58088;51.186;17.130;2024-02-21T01:03:23;8.74;74.50
70534;SHT31;58088;51.186;17.130;2024-02-21T01:05:49;8.74;74.41
70534;SHT31;58088;51.186;17.130;2024-02-21T01:08:15;8.72;74.40
70534;SHT31;58088;51.186;17.130;2024-02-21T01:10:42;8.72;74.40
70534;SHT31;58088;51.186;17.130;2024-02-21T01:13:08;8.69;74.42
70534;SHT31;58088;51.186;17.130;2024-02-21T01:15:34;8.68;74.41
70534;SHT31;58088;51.186;17.130;2024-02-21T01:18:01;8.66;74.40
70534;SHT31;58088;51.186;17.130;2024-02-21T01:20:28;8.66;74.47
70534;SHT31;58088;51.186;17.130;2024-02-21T01:22:54;8.65;74.40
70534;SHT31;58088;51.186;17.130;2024-02-21T01:25:20;8.63;74.40
70534;SHT31;58088;51.186;17.130;2024-02-21T01:27:46;8.60;74.41
70534;SHT31;58088;51.186;17.130;2024-02-21T01:30:13;8.56;74.46
70534;SHT31;58088;51.186;17.130;2024-02-21T01:32:39;8.55;74.42
70534;SHT31;58088;51.186;17.130;2024-02-21T01:35:05;8.54;74.41
70534;SHT31;58088;51.186;17.130;2024-02-21T01:37:33;8.51;74.47
70534;SHT31;58088;51.186;17.130;2024-02-21T01:39:59;8.51;74.50
70534;SHT31;58088;51.186;17.130;2024-02-21T01:42:25;8.50;74.51
70534;SHT31;58088;51.186;17.130;2024-02-21T01:44:51;8.48;74.59
70534;SHT31;58088;51.186;17.130;2024-02-21T01:47:17;8.47;74.69
70534;SHT31;58088;51.186;17.130;2024-02-21T01:49:44;8.45;74.82
70534;SHT31;58088;51.186;17.130;2024-02-21T01:52:10;8.44;74.99
70534;SHT31;58088;51.186;17.130;2024-02-21T01:54:40;8.45;75.13
70534;SHT31;58088;51.186;17.130;2024-02-21T01:57:06;8.45;75.28
70534;SHT31;58088;51.186;17.130;2024-02-21T01:59:33;8.47;75.57
70534;SHT31;58088;51.186;17.130;2024-02-21T02:02:01;8.49;75.61
70534;SHT31;58088;51.186;17.130;2024-02-21T02:04:27;8.50;75.64
70534;SHT31;58088;51.186;17.130;2024-02-21T02:06:55;8.53;75.68
70534;SHT31;58088;51.186;17.130;2024-02-21T02:09:21;8.55;75.67
70534;SHT31;58088;51.186;17.130;2024-02-21T02:11:48;8.56;75.70
70534;SHT31;58088;51.186;17.130;2024-02-21T02:14:14;8.55;75.76
70534;SHT31;58088;51.186;17.130;2024-02-21T02:16:40;8.59;75.79
70534;SHT31;58088;51.186;17.130;2024-02-21T02:19:06;8.63;75.77
70534;SHT31;58088;51.186;17.130;2024-02-21T02:21:36;8.66;75.67
70534;SHT31;58088;51.186;17.130;2024-02-21T02:24:08;8.69;75.60
70534;SHT31;58088;51.186;17.130;2024-02-21T02:26:34;8.73;75.51
70534;SHT31;58088;51.186;17.130;2024-02-21T02:29:03;8.74;75.40
70534;SHT31;58088;51.186;17.130;2024-02-21T02:31:29;8.73;75.40
70534;SHT31;58088;51.186;17.130;2024-02-21T02:33:55;8.77;75.41
70534;SHT31;58088;51.186;17.130;2024-02-21T02:36:21;8.75;75.41
70534;SHT31;58088;51.186;17.130;2024-02-21T02:38:47;8.75;75.48
70534;SHT31;58088;51.186;17.130;2024-02-21T02:41:13;8.75;75.50
70534;SHT31;58088;51.186;17.130;2024-02-21T02:43:39;8.78;75.50
70534;SHT31;58088;51.186;17.130;2024-02-21T02:46:06;8.81;75.48
70534;SHT31;58088;51.186;17.130;2024-02-21T02:48:32;8.83;75.38
70534;SHT31;58088;51.186;17.130;2024-02-21T02:50:58;8.83;75.28
70534;SHT31;58088;51.186;17.130;2024-02-21T02:53:24;8.82;75.12
70534;SHT31;58088;51.186;17.130;2024-02-21T02:55:50;8.82;75.04
70534;SHT31;58088;51.186;17.130;2024-02-21T02:58:16;8.83;74.98
70534;SHT31;58088;51.186;17.130;2024-02-21T03:00:42;8.81;74.90
70534;SHT31;58088;51.186;17.130;2024-02-21T03:03:27;8.77;74.90
70534;SHT31;58088;51.186;17.130;2024-02-21T03:05:53;8.77;74.81
70534;SHT31;58088;51.186;17.130;2024-02-21T03:08:19;8.75;74.66
70534;SHT31;58088;51.186;17.130;2024-02-21T03:10:45;8.70;74.50
70534;SHT31;58088;51.186;17.130;2024-02-21T03:13:11;8.65;74.40
70534;SHT31;58088;51.186;17.130;2024-02-21T03:15:39;8.63;74.37
70534;SHT31;58088;51.186;17.130;2024-02-21T03:18:07;8.61;74.29
70534;SHT31;58088;51.186;17.130;2024-02-21T03:20:33;8.57;74.31
70534;SHT31;58088;51.186;17.130;2024-02-21T03:23:01;8.56;74.40
70534;SHT31;58088;51.186;17.130;2024-02-21T03:25:28;8.53;74.39
70534;SHT31;58088;51.186;17.130;2024-02-21T03:27:54;8.50;74.43
70534;SHT31;58088;51.186;17.130;2024-02-21T03:30:20;8.47;74.55
70534;SHT31;58088;51.186;17.130;2024-02-21T03:32:46;8.46;74.60
70534;SHT31;58088;51.186;17.130;2024-02-21T03:35:12;8.49;74.58
70534;SHT31;58088;51.186;17.130;2024-02-21T03:37:38;8.49;74.60
70534;SHT31;58088;51.186;17.130;2024-02-21T03:40:08;8.51;74.60
70534;SHT31;58088;51.186;17.130;2024-02-21T03:42:35;8.53;74.60
70534;SHT31;58088;51.186;17.130;2024-02-21T03:45:01;8.53;74.60
70534;SHT31;58088;51.186;17.130;2024-02-21T03:47:27;8.53;74.62
70534;SHT31;58088;51.186;17.130;2024-02-21T03:49:53;8.55;74.68
70534;SHT31;58088;51.186;17.130;2024-02-21T03:52:19;8.57;74.67
70534;SHT31;58088;51.186;17.130;2024-02-21T03:54:45;8.56;74.61
70534;SHT31;58088;51.186;17.130;2024-02-21T03:57:11;8.56;74.62
70534;SHT31;58088;51.186;17.130;2024-02-21T03:59:37;8.58;74.61
70534;SHT31;58088;51.186;17.130;2024-02-21T04:02:06;8.57;74.60
70534;SHT31;58088;51.186;17.130;2024-02-21T04:04:35;8.56;74.60
70534;SHT31;58088;51.186;17.130;2024-02-21T04:07:04;8.57;74.57
70534;SHT31;58088;51.186;17.130;2024-02-21T04:09:34;8.56;74.50
70534;SHT31;58088;51.186;17.130;2024-02-21T04:12:00;8.55;74.44
70534;SHT31;58088;51.186;17.130;2024-02-21T04:14:27;8.54;74.40
70534;SHT31;58088;51.186;17.130;2024-02-21T04:16:53;8.52;74.37
70534;SHT31;58088;51.186;17.130;2024-02-21T04:19:19;8.52;74.40
70534;SHT31;58088;51.186;17.130;2024-02-21T04:21:45;8.51;74.35
70534;SHT31;58088;51.186;17.130;2024-02-21T04:24:11;8.49;74.32
70534;SHT31;58088;51.186;17.130;2024-02-21T04:26:37;8.47;74.38
70534;SHT31;58088;51.186;17.130;2024-02-21T04:29:03;8.43;74.47
70534;SHT31;58088;51.186;17.130;2024-02-21T04:31:29;8.43;74.55
70534;SHT31;58088;51.186;17.130;2024-02-21T04:33:58;8.42;74.58
70534;SHT31;58088;51.186;17.130;2024-02-21T04:36:24;8.42;74.55
70534;SHT31;58088;51.186;17.130;2024-02-21T04:38:50;8.42;74.51
70534;SHT31;58088;51.186;17.130;2024-02-21T04:41:16;8.42;74.52
70534;SHT31;58088;51.186;17.130;2024-02-21T04:43:42;8.43;74.50
70534;SHT31;58088;51.186;17.130;2024-02-21T04:46:08;8.43;74.50
70534;SHT31;58088;51.186;17.130;2024-02-21T04:48:35;8.43;74.50
70534;SHT31;58088;51.186;17.130;2024-02-21T04:51:01;8.41;74.50
70534;SHT31;58088;51.186;17.130;2024-02-21T04:53:27;8.42;74.50
70534;SHT31;58088;51.186;17.130;2024-02-21T04:55:53;8.39;74.50
70534;SHT31;58088;51.186;17.130;2024-02-21T04:58:19;8.36;74.59
70534;SHT31;58088;51.186;17.130;2024-02-21T05:00:46;8.37;74.61
70534;SHT31;58088;51.186;17.130;2024-02-21T05:03:12;8.38;74.66
70534;SHT31;58088;51.186;17.130;2024-02-21T05:05:38;8.38;74.65
70534;SHT31;58088;51.186;17.130;2024-02-21T05:08:04;8.38;74.62
70534;SHT31;58088;51.186;17.130;2024-02-21T05:10:30;8.38;74.61
70534;SHT31;58088;51.186;17.130;2024-02-21T05:12:57;8.39;74.61
70534;SHT31;58088;51.186;17.130;2024-02-21T05:15:24;8.39;74.68
70534;SHT31;58088;51.186;17.130;2024-02-21T05:17:50;8.39;74.70
70534;SHT31;58088;51.186;17.130;2024-02-21T05:20:16;8.41;74.70
70534;SHT31;58088;51.186;17.130;2024-02-21T05:22:42;8.41;74.71
70534;SHT31;58088;51.186;17.130;2024-02-21T05:25:08;8.43;74.70
70534;SHT31;58088;51.186;17.130;2024-02-21T05:27:35;8.43;74.70
70534;SHT31;58088;51.186;17.130;2024-02-21T05:30:03;8.45;74.74
70534;SHT31;58088;51.186;17.130;2024-02-21T05:32:32;8.45;74.70
70534;SHT31;58088;51.186;17.130;2024-02-21T05:34:58;8.47;74.69
70534;SHT31;58088;51.186;17.130;2024-02-21T05:37:24;8.48;74.65
70534;SHT31;58088;51.186;17.130;2024-02-21T05:39:50;8.49;74.71
70534;SHT31;58088;51.186;17.130;2024-02-21T05:42:17;8.62;75.04
70534;SHT31;58088;51.186;17.130;2024-02-21T05:44:43;8.64;74.76
70534;SHT31;58088;51.186;17.130;2024-02-21T05:47:09;8.62;74.63
70534;SHT31;58088;51.186;17.130;2024-02-21T05:49:36;8.63;74.60
70534;SHT31;58088;51.186;17.130;2024-02-21T05:52:02;8.64;74.50
70534;SHT31;58088;51.186;17.130;2024-02-21T05:54:29;8.67;74.43
70534;SHT31;58088;51.186;17.130;2024-02-21T05:56:55;8.68;74.38
70534;SHT31;58088;51.186;17.130;2024-02-21T05:59:22;8.68;74.29
70534;SHT31;58088;51.186;17.130;2024-02-21T06:01:55;8.70;74.28
70534;SHT31;58088;51.186;17.130;2024-02-21T06:04:23;8.67;74.30
70534;SHT31;58088;51.186;17.130;2024-02-21T06:06:49;8.64;74.29
70534;SHT31;58088;51.186;17.130;2024-02-21T06:09:15;8.60;74.29
70534;SHT31;58088;51.186;17.130;2024-02-21T06:11:41;8.60;74.30
70534;SHT31;58088;51.186;17.130;2024-02-21T06:14:08;8.57;74.20
70534;SHT31;58088;51.186;17.130;2024-02-21T06:16:34;8.57;74.15
70534;SHT31;58088;51.186;17.130;2024-02-21T06:19:00;8.57;74.10
70534;SHT31;58088;51.186;17.130;2024-02-21T06:21:28;8.59;74.07
70534;SHT31;58088;51.186;17.130;2024-02-21T06:23:55;8.60;73.94
70534;SHT31;58088;51.186;17.130;2024-02-21T06:26:21;8.63;73.89
70534;SHT31;58088;51.186;17.130;2024-02-21T06:28:47;8.67;73.81
70534;SHT31;58088;51.186;17.130;2024-02-21T06:31:13;8.71;73.79
70534;SHT31;58088;51.186;17.130;2024-02-21T06:33:40;8.76;73.83
70534;SHT31;58088;51.186;17.130;2024-02-21T06:36:06;8.80;73.70
70534;SHT31;58088;51.186;17.130;2024-02-21T06:38:33;8.84;73.61
70534;SHT31;58088;51.186;17.130;2024-02-21T06:40:59;8.86;73.58
70534;SHT31;58088;51.186;17.130;2024-02-21T06:43:28;8.88;73.57
70534;SHT31;58088;51.186;17.130;2024-02-21T06:45:54;8.90;73.49
70534;SHT31;58088;51.186;17.130;2024-02-21T06:48:22;8.92;73.47
70534;SHT31;58088;51.186;17.130;2024-02-21T06:50:48;8.95;73.33
70534;SHT31;58088;51.186;17.130;2024-02-21T06:53:14;8.96;73.28
70534;SHT31;58088;51.186;17.130;2024-02-21T06:55:40;8.98;73.18
70534;SHT31;58088;51.186;17.130;2024-02-21T06:58:06;9.01;73.14
70534;SHT31;58088;51.186;17.130;2024-02-21T07:00:37;9.06;73.13
70534;SHT31;58088;51.186;17.130;2024-02-21T07:03:05;9.09;73.11
70534;SHT31;58088;51.186;17.130;2024-02-21T07:05:30;9.11;73.10
70534;SHT31;58088;51.186;17.130;2024-02-21T07:07:57;9.15;73.01
70534;SHT31;58088;51.186;17.130;2024-02-21T07:10:23;9.16;72.96
70534;SHT31;58088;51.186;17.130;2024-02-21T07:12:49;9.21;73.00
70534;SHT31;58088;51.186;17.130;2024-02-21T07:15:17;9.25;72.88
70534;SHT31;58088;51.186;17.130;2024-02-21T07:17:43;9.28;72.77
70534;SHT31;58088;51.186;17.130;2024-02-21T07:20:09;9.31;72.64
70534;SHT31;58088;51.186;17.130;2024-02-21T07:22:36;9.36;72.60
70534;SHT31;58088;51.186;17.130;2024-02-21T07:25:02;9.40;72.52
70534;SHT31;58088;51.186;17.130;2024-02-21T07:27:28;9.45;72.59
70534;SHT31;58088;51.186;17.130;2024-02-21T07:29:56;9.50;72.69
70534;SHT31;58088;51.186;17.130;2024-02-21T07:32:23;9.53;72.61
70534;SHT31;58088;51.186;17.130;2024-02-21T07:34:49;9.55;72.51
70534;SHT31;58088;51.186;17.130;2024-02-21T07:37:15;9.54;72.51
70534;SHT31;58088;51.186;17.130;2024-02-21T07:39:41;9.58;72.63
70534;SHT31;58088;51.186;17.130;2024-02-21T07:42:07;9.62;72.70
70534;SHT31;58088;51.186;17.130;2024-02-21T07:44:33;9.66;72.69
70534;SHT31;58088;51.186;17.130;2024-02-21T07:47:00;9.69;72.78
70534;SHT31;58088;51.186;17.130;2024-02-21T07:49:26;9.68;72.72
70534;SHT31;58088;51.186;17.130;2024-02-21T07:51:52;9.71;72.70
70534;SHT31;58088;51.186;17.130;2024-02-21T07:54:18;9.71;72.74
70534;SHT31;58088;51.186;17.130;2024-02-21T07:56:44;9.75;72.83
70534;SHT31;58088;51.186;17.130;2024-02-21T07:59:10;9.77;72.85
70534;SHT31;58088;51.186;17.130;2024-02-21T08:01:38;9.82;72.95
70534;SHT31;58088;51.186;17.130;2024-02-21T08:04:05;9.88;73.07
70534;SHT31;58088;51.186;17.130;2024-02-21T08:06:31;9.92;73.08
70534;SHT31;58088;51.186;17.130;2024-02-21T08:08:57;9.92;72.96
70534;SHT31;58088;51.186;17.130;2024-02-21T08:11:23;9.93;73.10
70534;SHT31;58088;51.186;17.130;2024-02-21T08:13:49;9.97;73.26
70534;SHT31;58088;51.186;17.130;2024-02-21T08:16:15;9.98;73.31
70534;SHT31;58088;51.186;17.130;2024-02-21T08:18:43;10.02;73.27
70534;SHT31;58088;51.186;17.130;2024-02-21T08:21:10;10.06;73.20
70534;SHT31;58088;51.186;17.130;2024-02-21T08:23:36;10.07;73.13
70534;SHT31;58088;51.186;17.130;2024-02-21T08:26:03;10.08;73.20
70534;SHT31;58088;51.186;17.130;2024-02-21T08:28:29;10.12;73.23
70534;SHT31;58088;51.186;17.130;2024-02-21T08:30:56;10.14;73.08
70534;SHT31;58088;51.186;17.130;2024-02-21T08:33:22;10.15;72.96
70534;SHT31;58088;51.186;17.130;2024-02-21T08:35:51;10.18;72.93
70534;SHT31;58088;51.186;17.130;2024-02-21T08:38:17;10.17;72.87
70534;SHT31;58088;51.186;17.130;2024-02-21T08:40:44;10.21;73.02
70534;SHT31;58088;51.186;17.130;2024-02-21T08:43:10;10.27;73.10
70534;SHT31;58088;51.186;17.130;2024-02-21T08:45:37;10.28;72.99
70534;SHT31;58088;51.186;17.130;2024-02-21T08:48:03;10.33;72.99
70534;SHT31;58088;51.186;17.130;2024-02-21T08:50:30;10.38;73.07
70534;SHT31;58088;51.186;17.130;2024-02-21T08:52:56;10.44;73.01
70534;SHT31;58088;51.186;17.130;2024-02-21T08:55:22;10.49;72.95
70534;SHT31;58088;51.186;17.130;2024-02-21T08:57:49;10.52;72.81
70534;SHT31;58088;51.186;17.130;2024-02-21T09:00:15;10.59;72.84
70534;SHT31;58088;51.186;17.130;2024-02-21T09:02:42;10.65;72.73
70534;SHT31;58088;51.186;17.130;2024-02-21T09:05:09;10.69;72.58
70534;SHT31;58088;51.186;17.130;2024-02-21T09:07:35;10.67;72.27
70534;SHT31;58088;51.186;17.130;2024-02-21T09:10:01;10.66;72.14
70534;SHT31;58088;51.186;17.130;2024-02-21T09:12:28;10.66;72.19
70534;SHT31;58088;51.186;17.130;2024-02-21T09:14:55;10.64;72.30
70534;SHT31;58088;51.186;17.130;2024-02-21T09:17:21;10.61;72.10
70534;SHT31;58088;51.186;17.130;2024-02-21T09:19:47;10.64;72.18
70534;SHT31;58088;51.186;17.130;2024-02-21T09:22:13;10.68;72.27
70534;SHT31;58088;51.186;17.130;2024-02-21T09:24:40;10.72;72.20
70534;SHT31;58088;51.186;17.130;2024-02-21T09:27:06;10.74;72.10
70534;SHT31;58088;51.186;17.130;2024-02-21T09:29:32;10.73;71.92
70534;SHT31;58088;51.186;17.130;2024-02-21T09:32:01;10.73;71.74
70534;SHT31;58088;51.186;17.130;2024-02-21T09:34:28;10.71;71.66
70534;SHT31;58088;51.186;17.130;2024-02-21T09:36:55;10.71;71.67
70534;SHT31;58088;51.186;17.130;2024-02-21T09:39:22;10.71;71.64
70534;SHT31;58088;51.186;17.130;2024-02-21T09:41:58;10.74;71.63
70534;SHT31;58088;51.186;17.130;2024-02-21T09:44:37;10.73;71.64
70534;SHT31;58088;51.186;17.130;2024-02-21T09:49:57;10.81;71.80
70534;SHT31;58088;51.186;17.130;2024-02-21T09:52:25;10.91;72.06
70534;SHT31;58088;51.186;17.130;2024-02-21T09:54:52;10.95;71.82
70534;SHT31;58088;51.186;17.130;2024-02-21T09:57:19;10.99;71.63
70534;SHT31;58088;51.186;17.130;2024-02-21T09:59:47;11.04;71.71
70534;SHT31;58088;51.186;17.130;2024-02-21T10:02:13;11.09;71.54
70534;SHT31;58088;51.186;17.130;2024-02-21T10:04:40;11.13;71.42
70534;SHT31;58088;51.186;17.130;2024-02-21T10:07:07;11.14;71.25
70534;SHT31;58088;51.186;17.130;2024-02-21T10:09:33;11.17;71.25
70534;SHT31;58088;51.186;17.130;2024-02-21T10:12:09;11.18;71.16
70534;SHT31;58088;51.186;17.130;2024-02-21T10:14:37;11.20;70.83
70534;SHT31;58088;51.186;17.130;2024-02-21T10:17:03;11.20;70.70
70534;SHT31;58088;51.186;17.130;2024-02-21T10:19:34;11.21;70.76
70534;SHT31;58088;51.186;17.130;2024-02-21T10:22:05;11.23;70.90
70534;SHT31;58088;51.186;17.130;2024-02-21T10:24:34;11.23;70.92
70534;SHT31;58088;51.186;17.130;2024-02-21T10:27:06;11.21;70.82
70534;SHT31;58088;51.186;17.130;2024-02-21T10:29:36;11.22;70.72
70534;SHT31;58088;51.186;17.130;2024-02-21T10:32:07;11.20;70.55
70534;SHT31;58088;51.186;17.130;2024-02-21T10:34:35;11.19;70.63
70534;SHT31;58088;51.186;17.130;2024-02-21T10:37:05;11.20;70.81
70534;SHT31;58088;51.186;17.130;2024-02-21T10:39:33;11.26;70.95
70534;SHT31;58088;51.186;17.130;2024-02-21T10:42:03;11.28;70.96
70534;SHT31;58088;51.186;17.130;2024-02-21T10:44:32;11.29;71.10
70534;SHT31;58088;51.186;17.130;2024-02-21T10:47:03;11.27;70.98
70534;SHT31;58088;51.186;17.130;2024-02-21T10:49:38;11.26;71.02
70534;SHT31;58088;51.186;17.130;2024-02-21T10:55:20;11.22;70.60
70534;SHT31;58088;51.186;17.130;2024-02-21T10:57:55;11.23;70.56
70534;SHT31;58088;51.186;17.130;2024-02-21T11:00:23;11.22;70.52
70534;SHT31;58088;51.186;17.130;2024-02-21T11:02:56;11.22;70.57
70534;SHT31;58088;51.186;17.130;2024-02-21T11:05:25;11.26;70.62
70534;SHT31;58088;51.186;17.130;2024-02-21T11:07:53;11.26;70.51
70534;SHT31;58088;51.186;17.130;2024-02-21T11:10:20;11.32;70.67
70534;SHT31;58088;51.186;17.130;2024-02-21T11:12:52;11.34;70.75
70534;SHT31;58088;51.186;17.130;2024-02-21T11:15:39;11.40;70.72
70534;SHT31;58088;51.186;17.130;2024-02-21T11:18:06;11.42;70.66
70534;SHT31;58088;51.186;17.130;2024-02-21T11:20:33;11.39;70.36
70534;SHT31;58088;51.186;17.130;2024-02-21T11:23:04;11.42;70.43
70534;SHT31;58088;51.186;17.130;2024-02-21T11:25:30;11.43;70.37
70534;SHT31;58088;51.186;17.130;2024-02-21T11:28:02;11.43;70.29
70534;SHT31;58088;51.186;17.130;2024-02-21T11:30:31;11.45;70.42
70534;SHT31;58088;51.186;17.130;2024-02-21T11:33:01;11.48;70.44
70534;SHT31;58088;51.186;17.130;2024-02-21T11:35:35;11.51;70.37
70534;SHT31;58088;51.186;17.130;2024-02-21T11:38:09;11.52;70.16
70534;SHT31;58088;51.186;17.130;2024-02-21T11:40:40;11.55;70.01
70534;SHT31;58088;51.186;17.130;2024-02-21T11:43:10;11.65;70.18
70534;SHT31;58088;51.186;17.130;2024-02-21T11:45:36;11.71;70.14
70534;SHT31;58088;51.186;17.130;2024-02-21T11:48:03;11.72;69.93
70534;SHT31;58088;51.186;17.130;2024-02-21T11:50:33;11.72;69.64
70534;SHT31;58088;51.186;17.130;2024-02-21T11:53:05;11.74;69.73
70534;SHT31;58088;51.186;17.130;2024-02-21T11:55:31;11.78;69.69
70534;SHT31;58088;51.186;17.130;2024-02-21T11:57:58;11.78;69.42
70534;SHT31;58088;51.186;17.130;2024-02-21T12:00:25;11.82;69.35
70534;SHT31;58088;51.186;17.130;2024-02-21T12:02:51;11.86;69.30
70534;SHT31;58088;51.186;17.130;2024-02-21T12:05:20;11.91;69.27
70534;SHT31;58088;51.186;17.130;2024-02-21T12:07:46;11.94;69.34
70534;SHT31;58088;51.186;17.130;2024-02-21T12:10:13;11.95;69.22
70534;SHT31;58088;51.186;17.130;2024-02-21T12:12:39;11.95;69.16
70534;SHT31;58088;51.186;17.130;2024-02-21T12:15:06;11.97;69.16
70534;SHT31;58088;51.186;17.130;2024-02-21T12:17:37;11.99;69.25
70534;SHT31;58088;51.186;17.130;2024-02-21T12:20:05;12.04;69.23
70534;SHT31;58088;51.186;17.130;2024-02-21T12:22:41;12.09;69.17
70534;SHT31;58088;51.186;17.130;2024-02-21T12:25:17;12.15;69.09
70534;SHT31;58088;51.186;17.130;2024-02-21T12:27:45;12.14;68.91
70534;SHT31;58088;51.186;17.130;2024-02-21T12:30:12;12.17;68.93
70534;SHT31;58088;51.186;17.130;2024-02-21T12:32:38;12.16;68.76
70534;SHT31;58088;51.186;17.130;2024-02-21T12:35:05;12.15;68.76
70534;SHT31;58088;51.186;17.130;2024-02-21T12:37:31;12.18;68.84
70534;SHT31;58088;51.186;17.130;2024-02-21T12:39:58;12.17;68.72
70534;SHT31;58088;51.186;17.130;2024-02-21T12:42:25;12.17;68.85
70534;SHT31;58088;51.186;17.130;2024-02-21T12:44:52;12.16;68.80
70534;SHT31;58088;51.186;17.130;2024-02-21T12:47:18;12.17;68.73
70534;SHT31;58088;51.186;17.130;2024-02-21T12:49:49;12.15;68.57
70534;SHT31;58088;51.186;17.130;2024-02-21T12:52:15;12.19;68.79
70534;SHT31;58088;51.186;17.130;2024-02-21T12:54:41;12.22;68.80
70534;SHT31;58088;51.186;17.130;2024-02-21T12:57:11;12.24;68.82
70534;SHT31;58088;51.186;17.130;2024-02-21T12:59:37;12.27;68.81
70534;SHT31;58088;51.186;17.130;2024-02-21T13:02:03;12.28;68.89
70534;SHT31;58088;51.186;17.130;2024-02-21T13:04:30;12.28;68.74
70534;SHT31;58088;51.186;17.130;2024-02-21T13:06:56;12.27;68.77
70534;SHT31;58088;51.186;17.130;2024-02-21T13:09:22;12.27;68.74
70534;SHT31;58088;51.186;17.130;2024-02-21T13:11:48;12.27;68.78
70534;SHT31;58088;51.186;17.130;2024-02-21T13:14:16;12.29;68.73
70534;SHT31;58088;51.186;17.130;2024-02-21T13:16:42;12.26;68.70
70534;SHT31;58088;51.186;17.130;2024-02-21T13:19:09;12.26;68.84
70534;SHT31;58088;51.186;17.130;2024-02-21T13:21:35;12.21;68.97
70534;SHT31;58088;51.186;17.130;2024-02-21T13:24:02;12.19;68.94
70534;SHT31;58088;51.186;17.130;2024-02-21T13:26:29;12.14;68.50
70534;SHT31;58088;51.186;17.130;2024-02-21T13:28:55;12.10;68.36
70534;SHT31;58088;51.186;17.130;2024-02-21T13:31:21;12.12;68.33
70534;SHT31;58088;51.186;17.130;2024-02-21T13:33:48;12.13;68.24
70534;SHT31;58088;51.186;17.130;2024-02-21T13:36:14;12.06;67.85
70534;SHT31;58088;51.186;17.130;2024-02-21T13:38:40;12.01;67.79
70534;SHT31;58088;51.186;17.130;2024-02-21T13:41:07;12.01;67.78
70534;SHT31;58088;51.186;17.130;2024-02-21T13:43:34;12.01;67.70
70534;SHT31;58088;51.186;17.130;2024-02-21T13:46:00;12.03;67.65
70534;SHT31;58088;51.186;17.130;2024-02-21T13:48:30;12.08;67.71
70534;SHT31;58088;51.186;17.130;2024-02-21T13:50:58;12.15;67.73
70534;SHT31;58088;51.186;17.130;2024-02-21T13:53:25;12.14;67.44
70534;SHT31;58088;51.186;17.130;2024-02-21T13:55:51;12.15;67.37
70534;SHT31;58088;51.186;17.130;2024-02-21T13:58:18;12.19;67.25
70534;SHT31;58088;51.186;17.130;2024-02-21T14:00:45;12.23;67.28
70534;SHT31;58088;51.186;17.130;2024-02-21T14:03:11;12.26;67.30
70534;SHT31;58088;51.186;17.130;2024-02-21T14:05:37;12.30;67.38
70534;SHT31;58088;51.186;17.130;2024-02-21T14:08:06;12.28;67.14
70534;SHT31;58088;51.186;17.130;2024-02-21T14:10:33;12.21;66.64
70534;SHT31;58088;51.186;17.130;2024-02-21T14:12:59;12.25;66.68
70534;SHT31;58088;51.186;17.130;2024-02-21T14:15:26;12.25;66.69
70534;SHT31;58088;51.186;17.130;2024-02-21T14:17:52;12.27;66.59
70534;SHT31;58088;51.186;17.130;2024-02-21T14:20:18;12.31;66.64
70534;SHT31;58088;51.186;17.130;2024-02-21T14:22:44;12.33;66.61
70534;SHT31;58088;51.186;17.130;2024-02-21T14:25:11;12.35;66.50
70534;SHT31;58088;51.186;17.130;2024-02-21T14:27:37;12.36;66.50
70534;SHT31;58088;51.186;17.130;2024-02-21T14:30:04;12.38;66.47
70534;SHT31;58088;51.186;17.130;2024-02-21T14:32:31;12.36;66.36
70534;SHT31;58088;51.186;17.130;2024-02-21T14:34:58;12.38;66.38
70534;SHT31;58088;51.186;17.130;2024-02-21T14:37:24;12.41;66.49
70534;SHT31;58088;51.186;17.130;2024-02-21T14:39:51;12.41;66.26
70534;SHT31;58088;51.186;17.130;2024-02-21T14:42:17;12.41;66.20
70534;SHT31;58088;51.186;17.130;2024-02-21T14:44:43;12.43;66.04
70534;SHT31;58088;51.186;17.130;2024-02-21T14:47:09;12.40;65.89
70534;SHT31;58088;51.186;17.130;2024-02-21T14:49:35;12.37;65.92
70534;SHT31;58088;51.186;17.130;2024-02-21T14:52:02;12.36;65.94
70534;SHT31;58088;51.186;17.130;2024-02-21T14:54:28;12.37;66.01
70534;SHT31;58088;51.186;17.130;2024-02-21T14:56:54;12.34;65.82
70534;SHT31;58088;51.186;17.130;2024-02-21T14:59:20;12.34;65.81
70534;SHT31;58088;51.186;17.130;2024-02-21T15:01:46;12.34;65.85
70534;SHT31;58088;51.186;17.130;2024-02-21T15:04:13;12.36;66.11
70534;SHT31;58088;51.186;17.130;2024-02-21T15:06:39;12.45;66.34
70534;SHT31;58088;51.186;17.130;2024-02-21T15:09:06;12.49;66.00
70534;SHT31;58088;51.186;17.130;2024-02-21T15:11:32;12.48;65.92
70534;SHT31;58088;51.186;17.130;2024-02-21T15:13:59;12.48;66.03
70534;SHT31;58088;51.186;17.130;2024-02-21T15:16:25;12.47;65.91
70534;SHT31;58088;51.186;17.130;2024-02-21T15:18:51;12.49;65.91
70534;SHT31;58088;51.186;17.130;2024-02-21T15:21:17;12.48;65.74
70534;SHT31;58088;51.186;17.130;2024-02-21T15:23:44;12.48;65.74
70534;SHT31;58088;51.186;17.130;2024-02-21T15:26:10;12.47;66.03
70534;SHT31;58088;51.186;17.130;2024-02-21T15:28:37;12.49;66.16
70534;SHT31;58088;51.186;17.130;2024-02-21T15:31:06;12.52;66.16